sensor_id;sensor_type;location;lat;lon;timestamp;P1;durP1;ratioP1;P2;durP2;ratioP2
21010;SDS011;10663;42.714;23.274;2022-12-24T00:00:48;30.77;;;21.10;;
21010;SDS011;10663;42.714;23.274;2022-12-24T00:02:19;33.00;;;23.53;;
21010;SDS011;10663;42.714;23.274;2022-12-24T00:03:50;33.03;;;22.63;;
21010;SDS011;10663;42.714;23.274;2022-12-24T00:05:21;34.10;;;22.95;;
21010;SDS011;10663;42.714;23.274;2022-12-24T00:06:52;33.88;;;22.52;;
21010;SDS011;10663;42.714;23.274;2022-12-24T00:08:22;32.00;;;21.92;;
21010;SDS011;10663;42.714;23.274;2022-12-24T00:09:53;32.78;;;21.73;;
21010;SDS011;10663;42.714;23.274;2022-12-24T00:11:24;31.55;;;21.90;;
21010;SDS011;10663;42.714;23.274;2022-12-24T00:12:56;30.67;;;21.83;;
21010;SDS011;10663;42.714;23.274;2022-12-24T00:14:27;32.13;;;21.63;;
21010;SDS011;10663;42.714;23.274;2022-12-24T00:15:58;31.58;;;21.58;;
21010;SDS011;10663;42.714;23.274;2022-12-24T00:17:30;33.22;;;22.67;;
21010;SDS011;10663;42.714;23.274;2022-12-24T00:19:02;32.13;;;21.45;;
21010;SDS011;10663;42.714;23.274;2022-12-24T00:20:33;33.33;;;22.45;;
21010;SDS011;10663;42.714;23.274;2022-12-24T00:22:04;30.48;;;22.73;;
21010;SDS011;10663;42.714;23.274;2022-12-24T00:23:35;33.15;;;22.70;;
21010;SDS011;10663;42.714;23.274;2022-12-24T00:25:06;34.45;;;23.00;;
21010;SDS011;10663;42.714;23.274;2022-12-24T00:26:37;29.83;;;21.53;;
21010;SDS011;10663;42.714;23.274;2022-12-24T00:28:08;29.85;;;22.33;;
21010;SDS011;10663;42.714;23.274;2022-12-24T00:29:39;37.38;;;24.35;;
21010;SDS011;10663;42.714;23.274;2022-12-24T00:31:11;37.47;;;26.50;;
21010;SDS011;10663;42.714;23.274;2022-12-24T00:32:43;49.97;;;33.08;;
21010;SDS011;10663;42.714;23.274;2022-12-24T00:34:23;37.33;;;25.35;;
21010;SDS011;10663;42.714;23.274;2022-12-24T00:35:54;35.00;;;24.33;;
21010;SDS011;10663;42.714;23.274;2022-12-24T00:37:25;33.72;;;22.83;;
21010;SDS011;10663;42.714;23.274;2022-12-24T00:38:56;31.95;;;22.42;;
21010;SDS011;10663;42.714;23.274;2022-12-24T00:40:27;44.55;;;28.45;;
21010;SDS011;10663;42.714;23.274;2022-12-24T00:41:58;37.85;;;25.95;;
21010;SDS011;10663;42.714;23.274;2022-12-24T00:43:29;48.03;;;31.20;;
21010;SDS011;10663;42.714;23.274;2022-12-24T00:45:00;53.95;;;32.25;;
21010;SDS011;10663;42.714;23.274;2022-12-24T00:46:33;53.50;;;35.72;;
21010;SDS011;10663;42.714;23.274;2022-12-24T00:48:06;61.70;;;40.42;;
21010;SDS011;10663;42.714;23.274;2022-12-24T00:49:38;72.32;;;45.20;;
21010;SDS011;10663;42.714;23.274;2022-12-24T00:51:08;75.40;;;49.00;;
21010;SDS011;10663;42.714;23.274;2022-12-24T00:52:39;59.28;;;37.83;;
21010;SDS011;10663;42.714;23.274;2022-12-24T00:54:10;58.50;;;39.38;;
21010;SDS011;10663;42.714;23.274;2022-12-24T00:55:43;94.03;;;57.80;;
21010;SDS011;10663;42.714;23.274;2022-12-24T00:57:14;90.83;;;57.57;;
21010;SDS011;10663;42.714;23.274;2022-12-24T00:58:45;83.07;;;51.50;;
21010;SDS011;10663;42.714;23.274;2022-12-24T01:00:16;94.63;;;57.58;;
21010;SDS011;10663;42.714;23.274;2022-12-24T01:01:47;92.15;;;56.85;;
21010;SDS011;10663;42.714;23.274;2022-12-24T01:03:18;88.50;;;54.97;;
21010;SDS011;10663;42.714;23.274;2022-12-24T01:04:49;101.75;;;59.55;;
21010;SDS011;10663;42.714;23.274;2022-12-24T01:06:38;103.50;;;63.30;;
21010;SDS011;10663;42.714;23.274;2022-12-24T01:08:09;105.37;;;63.03;;
21010;SDS011;10663;42.714;23.274;2022-12-24T01:09:40;103.72;;;62.35;;
21010;SDS011;10663;42.714;23.274;2022-12-24T01:11:11;95.13;;;57.55;;
21010;SDS011;10663;42.714;23.274;2022-12-24T01:12:43;94.65;;;57.80;;
21010;SDS011;10663;42.714;23.274;2022-12-24T01:14:15;117.25;;;69.82;;
21010;SDS011;10663;42.714;23.274;2022-12-24T01:15:46;121.20;;;71.10;;
21010;SDS011;10663;42.714;23.274;2022-12-24T01:17:16;114.00;;;67.50;;
21010;SDS011;10663;42.714;23.274;2022-12-24T01:18:48;101.88;;;61.00;;
21010;SDS011;10663;42.714;23.274;2022-12-24T01:20:19;99.30;;;59.22;;
21010;SDS011;10663;42.714;23.274;2022-12-24T01:21:50;99.20;;;59.30;;
21010;SDS011;10663;42.714;23.274;2022-12-24T01:23:22;93.10;;;56.75;;
21010;SDS011;10663;42.714;23.274;2022-12-24T01:24:53;86.80;;;54.97;;
21010;SDS011;10663;42.714;23.274;2022-12-24T01:26:24;83.88;;;52.83;;
21010;SDS011;10663;42.714;23.274;2022-12-24T01:27:55;85.40;;;51.73;;
21010;SDS011;10663;42.714;23.274;2022-12-24T01:29:26;80.47;;;50.87;;
21010;SDS011;10663;42.714;23.274;2022-12-24T01:30:57;77.78;;;49.10;;
21010;SDS011;10663;42.714;23.274;2022-12-24T01:32:28;78.20;;;48.80;;
21010;SDS011;10663;42.714;23.274;2022-12-24T01:33:59;77.38;;;48.28;;
21010;SDS011;10663;42.714;23.274;2022-12-24T01:35:30;80.72;;;49.55;;
21010;SDS011;10663;42.714;23.274;2022-12-24T01:37:00;81.95;;;49.00;;
21010;SDS011;10663;42.714;23.274;2022-12-24T01:38:31;70.72;;;43.65;;
21010;SDS011;10663;42.714;23.274;2022-12-24T01:40:03;70.20;;;43.80;;
21010;SDS011;10663;42.714;23.274;2022-12-24T01:41:54;69.10;;;44.45;;
21010;SDS011;10663;42.714;23.274;2022-12-24T01:43:57;63.92;;;41.33;;
21010;SDS011;10663;42.714;23.274;2022-12-24T01:47:19;67.03;;;39.63;;
21010;SDS011;10663;42.714;23.274;2022-12-24T01:48:58;60.38;;;39.42;;
21010;SDS011;10663;42.714;23.274;2022-12-24T01:50:32;55.60;;;36.80;;
21010;SDS011;10663;42.714;23.274;2022-12-24T01:52:06;58.40;;;38.28;;
21010;SDS011;10663;42.714;23.274;2022-12-24T01:53:41;61.13;;;39.10;;
21010;SDS011;10663;42.714;23.274;2022-12-24T01:55:15;54.90;;;37.03;;
21010;SDS011;10663;42.714;23.274;2022-12-24T01:56:52;59.78;;;37.05;;
21010;SDS011;10663;42.714;23.274;2022-12-24T01:58:26;56.88;;;35.95;;
21010;SDS011;10663;42.714;23.274;2022-12-24T01:59:59;58.58;;;37.20;;
21010;SDS011;10663;42.714;23.274;2022-12-24T02:01:35;54.33;;;35.65;;
21010;SDS011;10663;42.714;23.274;2022-12-24T02:03:06;57.65;;;37.25;;
21010;SDS011;10663;42.714;23.274;2022-12-24T02:06:24;55.47;;;36.63;;
21010;SDS011;10663;42.714;23.274;2022-12-24T02:07:56;54.28;;;34.55;;
21010;SDS011;10663;42.714;23.274;2022-12-24T02:09:29;55.55;;;36.20;;
21010;SDS011;10663;42.714;23.274;2022-12-24T02:11:00;51.85;;;34.75;;
21010;SDS011;10663;42.714;23.274;2022-12-24T02:12:32;49.42;;;33.72;;
21010;SDS011;10663;42.714;23.274;2022-12-24T02:14:07;49.55;;;34.45;;
21010;SDS011;10663;42.714;23.274;2022-12-24T02:28:41;45.97;;;31.13;;
21010;SDS011;10663;42.714;23.274;2022-12-24T02:30:37;45.92;;;30.33;;
21010;SDS011;10663;42.714;23.274;2022-12-24T02:33:01;46.50;;;31.17;;
21010;SDS011;10663;42.714;23.274;2022-12-24T02:34:12;45.63;;;29.70;;
21010;SDS011;10663;42.714;23.274;2022-12-24T02:36:02;43.47;;;29.40;;
21010;SDS011;10663;42.714;23.274;2022-12-24T02:37:41;43.97;;;29.48;;
21010;SDS011;10663;42.714;23.274;2022-12-24T02:39:19;47.20;;;29.98;;
21010;SDS011;10663;42.714;23.274;2022-12-24T02:41:31;43.17;;;28.93;;
21010;SDS011;10663;42.714;23.274;2022-12-24T02:42:57;41.38;;;28.60;;
21010;SDS011;10663;42.714;23.274;2022-12-24T02:44:38;45.20;;;30.50;;
21010;SDS011;10663;42.714;23.274;2022-12-24T02:46:24;44.50;;;30.65;;
21010;SDS011;10663;42.714;23.274;2022-12-24T02:47:58;47.60;;;31.30;;
21010;SDS011;10663;42.714;23.274;2022-12-24T02:49:29;47.55;;;31.40;;
21010;SDS011;10663;42.714;23.274;2022-12-24T02:51:01;50.03;;;32.37;;
21010;SDS011;10663;42.714;23.274;2022-12-24T02:52:36;53.47;;;34.38;;
21010;SDS011;10663;42.714;23.274;2022-12-24T02:54:09;51.38;;;33.85;;
21010;SDS011;10663;42.714;23.274;2022-12-24T02:55:47;57.67;;;35.08;;
21010;SDS011;10663;42.714;23.274;2022-12-24T02:57:32;54.47;;;33.70;;
21010;SDS011;10663;42.714;23.274;2022-12-24T03:06:17;79.07;;;50.75;;
21010;SDS011;10663;42.714;23.274;2022-12-24T03:11:42;63.80;;;39.80;;
21010;SDS011;10663;42.714;23.274;2022-12-24T03:13:17;58.70;;;40.20;;
21010;SDS011;10663;42.714;23.274;2022-12-24T03:14:50;62.65;;;41.53;;
21010;SDS011;10663;42.714;23.274;2022-12-24T03:16:22;61.50;;;39.13;;
21010;SDS011;10663;42.714;23.274;2022-12-24T03:17:56;63.85;;;40.53;;
21010;SDS011;10663;42.714;23.274;2022-12-24T03:19:29;61.75;;;40.10;;
21010;SDS011;10663;42.714;23.274;2022-12-24T03:21:05;63.47;;;40.08;;
21010;SDS011;10663;42.714;23.274;2022-12-24T03:22:42;76.35;;;48.70;;
21010;SDS011;10663;42.714;23.274;2022-12-24T03:24:14;72.85;;;48.45;;
21010;SDS011;10663;42.714;23.274;2022-12-24T03:25:44;71.88;;;46.05;;
21010;SDS011;10663;42.714;23.274;2022-12-24T03:27:16;61.45;;;40.05;;
21010;SDS011;10663;42.714;23.274;2022-12-24T03:28:47;58.15;;;36.63;;
21010;SDS011;10663;42.714;23.274;2022-12-24T03:30:19;62.42;;;40.28;;
21010;SDS011;10663;42.714;23.274;2022-12-24T03:31:51;64.32;;;41.03;;
21010;SDS011;10663;42.714;23.274;2022-12-24T03:33:27;70.10;;;44.30;;
21010;SDS011;10663;42.714;23.274;2022-12-24T03:34:59;66.45;;;43.60;;
21010;SDS011;10663;42.714;23.274;2022-12-24T03:36:30;66.88;;;43.63;;
21010;SDS011;10663;42.714;23.274;2022-12-24T03:38:01;67.53;;;44.17;;
21010;SDS011;10663;42.714;23.274;2022-12-24T03:39:32;70.15;;;45.10;;
21010;SDS011;10663;42.714;23.274;2022-12-24T03:41:03;65.68;;;41.38;;
21010;SDS011;10663;42.714;23.274;2022-12-24T03:42:34;67.03;;;43.13;;
21010;SDS011;10663;42.714;23.274;2022-12-24T03:44:05;65.80;;;43.17;;
21010;SDS011;10663;42.714;23.274;2022-12-24T03:45:37;64.35;;;41.78;;
21010;SDS011;10663;42.714;23.274;2022-12-24T03:47:08;68.03;;;44.42;;
21010;SDS011;10663;42.714;23.274;2022-12-24T03:48:38;68.80;;;43.80;;
21010;SDS011;10663;42.714;23.274;2022-12-24T03:50:09;71.45;;;44.00;;
21010;SDS011;10663;42.714;23.274;2022-12-24T03:51:41;68.88;;;43.33;;
21010;SDS011;10663;42.714;23.274;2022-12-24T03:53:11;64.03;;;43.15;;
21010;SDS011;10663;42.714;23.274;2022-12-24T03:54:42;68.57;;;44.17;;
21010;SDS011;10663;42.714;23.274;2022-12-24T03:56:13;61.80;;;41.22;;
21010;SDS011;10663;42.714;23.274;2022-12-24T03:57:45;67.10;;;41.83;;
21010;SDS011;10663;42.714;23.274;2022-12-24T03:59:16;58.38;;;39.33;;
21010;SDS011;10663;42.714;23.274;2022-12-24T04:00:47;60.28;;;38.67;;
21010;SDS011;10663;42.714;23.274;2022-12-24T04:02:18;56.33;;;38.95;;
21010;SDS011;10663;42.714;23.274;2022-12-24T04:03:48;56.30;;;37.92;;
21010;SDS011;10663;42.714;23.274;2022-12-24T04:05:19;68.32;;;44.15;;
21010;SDS011;10663;42.714;23.274;2022-12-24T04:06:50;65.18;;;42.70;;
21010;SDS011;10663;42.714;23.274;2022-12-24T04:08:21;63.92;;;41.88;;
21010;SDS011;10663;42.714;23.274;2022-12-24T04:09:53;70.60;;;43.05;;
21010;SDS011;10663;42.714;23.274;2022-12-24T04:11:23;67.63;;;42.70;;
21010;SDS011;10663;42.714;23.274;2022-12-24T04:12:54;64.40;;;42.45;;
21010;SDS011;10663;42.714;23.274;2022-12-24T04:14:25;59.30;;;40.17;;
21010;SDS011;10663;42.714;23.274;2022-12-24T04:16:04;61.13;;;40.17;;
21010;SDS011;10663;42.714;23.274;2022-12-24T04:17:36;58.97;;;39.25;;
21010;SDS011;10663;42.714;23.274;2022-12-24T04:19:07;57.07;;;38.40;;
21010;SDS011;10663;42.714;23.274;2022-12-24T04:20:38;61.80;;;39.43;;
21010;SDS011;10663;42.714;23.274;2022-12-24T04:22:09;60.77;;;40.63;;
21010;SDS011;10663;42.714;23.274;2022-12-24T04:23:40;58.50;;;39.80;;
21010;SDS011;10663;42.714;23.274;2022-12-24T04:25:11;60.55;;;40.50;;
21010;SDS011;10663;42.714;23.274;2022-12-24T04:26:42;65.53;;;40.65;;
21010;SDS011;10663;42.714;23.274;2022-12-24T04:28:13;59.93;;;38.40;;
21010;SDS011;10663;42.714;23.274;2022-12-24T04:29:44;68.28;;;45.42;;
21010;SDS011;10663;42.714;23.274;2022-12-24T04:31:16;69.57;;;43.50;;
21010;SDS011;10663;42.714;23.274;2022-12-24T04:32:47;59.65;;;38.35;;
21010;SDS011;10663;42.714;23.274;2022-12-24T04:34:18;61.92;;;37.38;;
21010;SDS011;10663;42.714;23.274;2022-12-24T04:35:48;54.87;;;36.87;;
21010;SDS011;10663;42.714;23.274;2022-12-24T04:37:21;54.90;;;35.23;;
21010;SDS011;10663;42.714;23.274;2022-12-24T04:38:51;53.28;;;34.67;;
21010;SDS011;10663;42.714;23.274;2022-12-24T04:40:23;49.95;;;33.97;;
21010;SDS011;10663;42.714;23.274;2022-12-24T04:41:54;47.58;;;32.22;;
21010;SDS011;10663;42.714;23.274;2022-12-24T04:43:25;50.85;;;32.85;;
21010;SDS011;10663;42.714;23.274;2022-12-24T04:44:56;45.65;;;32.08;;
21010;SDS011;10663;42.714;23.274;2022-12-24T04:46:28;47.80;;;32.13;;
21010;SDS011;10663;42.714;23.274;2022-12-24T04:48:02;49.63;;;31.45;;
21010;SDS011;10663;42.714;23.274;2022-12-24T04:49:33;42.53;;;29.73;;
21010;SDS011;10663;42.714;23.274;2022-12-24T04:51:04;43.13;;;30.60;;
21010;SDS011;10663;42.714;23.274;2022-12-24T04:52:36;44.42;;;30.65;;
21010;SDS011;10663;42.714;23.274;2022-12-24T04:54:07;41.35;;;29.98;;
21010;SDS011;10663;42.714;23.274;2022-12-24T04:55:38;47.55;;;31.98;;
21010;SDS011;10663;42.714;23.274;2022-12-24T04:57:13;45.83;;;30.02;;
21010;SDS011;10663;42.714;23.274;2022-12-24T04:58:44;47.20;;;30.10;;
21010;SDS011;10663;42.714;23.274;2022-12-24T05:00:16;47.47;;;30.50;;
21010;SDS011;10663;42.714;23.274;2022-12-24T05:01:47;45.78;;;30.98;;
21010;SDS011;10663;42.714;23.274;2022-12-24T05:03:17;44.67;;;30.95;;
21010;SDS011;10663;42.714;23.274;2022-12-24T05:04:48;50.90;;;32.22;;
21010;SDS011;10663;42.714;23.274;2022-12-24T05:06:21;46.30;;;31.23;;
21010;SDS011;10663;42.714;23.274;2022-12-24T05:07:53;47.28;;;31.05;;
21010;SDS011;10663;42.714;23.274;2022-12-24T05:09:24;45.65;;;30.50;;
21010;SDS011;10663;42.714;23.274;2022-12-24T05:10:56;46.60;;;31.63;;
21010;SDS011;10663;42.714;23.274;2022-12-24T05:12:28;44.58;;;30.17;;
21010;SDS011;10663;42.714;23.274;2022-12-24T05:13:59;45.95;;;31.55;;
21010;SDS011;10663;42.714;23.274;2022-12-24T05:15:30;45.53;;;31.65;;
21010;SDS011;10663;42.714;23.274;2022-12-24T05:17:01;49.65;;;31.98;;
21010;SDS011;10663;42.714;23.274;2022-12-24T05:18:32;46.38;;;31.85;;
21010;SDS011;10663;42.714;23.274;2022-12-24T05:20:03;46.63;;;31.92;;
21010;SDS011;10663;42.714;23.274;2022-12-24T05:21:34;46.63;;;32.60;;
21010;SDS011;10663;42.714;23.274;2022-12-24T05:23:05;49.40;;;32.47;;
21010;SDS011;10663;42.714;23.274;2022-12-24T05:24:54;49.00;;;32.67;;
21010;SDS011;10663;42.714;23.274;2022-12-24T05:28:19;56.17;;;36.22;;
21010;SDS011;10663;42.714;23.274;2022-12-24T05:29:50;55.03;;;36.10;;
21010;SDS011;10663;42.714;23.274;2022-12-24T05:31:22;47.47;;;32.50;;
21010;SDS011;10663;42.714;23.274;2022-12-24T05:32:54;49.45;;;33.33;;
21010;SDS011;10663;42.714;23.274;2022-12-24T05:34:25;52.10;;;35.70;;
21010;SDS011;10663;42.714;23.274;2022-12-24T05:35:56;51.38;;;35.47;;
21010;SDS011;10663;42.714;23.274;2022-12-24T05:37:26;62.30;;;40.65;;
21010;SDS011;10663;42.714;23.274;2022-12-24T05:38:57;63.00;;;41.10;;
21010;SDS011;10663;42.714;23.274;2022-12-24T05:40:28;71.38;;;42.88;;
21010;SDS011;10663;42.714;23.274;2022-12-24T05:41:59;63.28;;;40.30;;
21010;SDS011;10663;42.714;23.274;2022-12-24T05:43:30;78.23;;;45.77;;
21010;SDS011;10663;42.714;23.274;2022-12-24T05:45:01;72.60;;;44.47;;
21010;SDS011;10663;42.714;23.274;2022-12-24T05:46:33;76.03;;;48.13;;
21010;SDS011;10663;42.714;23.274;2022-12-24T05:48:04;73.10;;;44.93;;
21010;SDS011;10663;42.714;23.274;2022-12-24T05:49:37;79.28;;;48.40;;
21010;SDS011;10663;42.714;23.274;2022-12-24T05:51:09;77.97;;;47.80;;
21010;SDS011;10663;42.714;23.274;2022-12-24T05:52:41;79.63;;;48.15;;
21010;SDS011;10663;42.714;23.274;2022-12-24T05:54:13;66.60;;;44.40;;
21010;SDS011;10663;42.714;23.274;2022-12-24T05:55:44;67.90;;;45.17;;
21010;SDS011;10663;42.714;23.274;2022-12-24T05:57:15;72.45;;;45.45;;
21010;SDS011;10663;42.714;23.274;2022-12-24T05:58:46;69.35;;;43.88;;
21010;SDS011;10663;42.714;23.274;2022-12-24T06:00:17;68.67;;;43.20;;
21010;SDS011;10663;42.714;23.274;2022-12-24T06:01:48;80.97;;;47.03;;
21010;SDS011;10663;42.714;23.274;2022-12-24T06:03:19;76.13;;;45.90;;
21010;SDS011;10663;42.714;23.274;2022-12-24T06:04:50;73.97;;;46.38;;
21010;SDS011;10663;42.714;23.274;2022-12-24T06:06:23;73.78;;;45.85;;
21010;SDS011;10663;42.714;23.274;2022-12-24T06:07:56;72.72;;;44.38;;
21010;SDS011;10663;42.714;23.274;2022-12-24T06:09:27;74.32;;;46.22;;
21010;SDS011;10663;42.714;23.274;2022-12-24T06:10:59;77.27;;;46.70;;
21010;SDS011;10663;42.714;23.274;2022-12-24T06:12:32;71.97;;;46.83;;
21010;SDS011;10663;42.714;23.274;2022-12-24T06:14:02;73.47;;;46.67;;
21010;SDS011;10663;42.714;23.274;2022-12-24T06:15:34;71.00;;;44.92;;
21010;SDS011;10663;42.714;23.274;2022-12-24T06:17:05;70.35;;;46.17;;
21010;SDS011;10663;42.714;23.274;2022-12-24T06:18:37;69.80;;;44.28;;
21010;SDS011;10663;42.714;23.274;2022-12-24T06:20:08;74.65;;;45.50;;
21010;SDS011;10663;42.714;23.274;2022-12-24T06:21:39;69.15;;;44.08;;
21010;SDS011;10663;42.714;23.274;2022-12-24T06:23:09;68.65;;;43.72;;
21010;SDS011;10663;42.714;23.274;2022-12-24T06:24:40;77.20;;;48.20;;
21010;SDS011;10663;42.714;23.274;2022-12-24T06:26:12;73.53;;;46.30;;
21010;SDS011;10663;42.714;23.274;2022-12-24T06:27:45;72.82;;;45.47;;
21010;SDS011;10663;42.714;23.274;2022-12-24T06:29:16;71.10;;;44.05;;
21010;SDS011;10663;42.714;23.274;2022-12-24T06:30:47;63.60;;;42.30;;
21010;SDS011;10663;42.714;23.274;2022-12-24T06:32:19;71.35;;;44.22;;
21010;SDS011;10663;42.714;23.274;2022-12-24T06:33:50;67.15;;;42.30;;
21010;SDS011;10663;42.714;23.274;2022-12-24T06:35:21;72.97;;;48.05;;
21010;SDS011;10663;42.714;23.274;2022-12-24T06:36:52;75.10;;;48.13;;
21010;SDS011;10663;42.714;23.274;2022-12-24T06:38:23;76.40;;;47.70;;
21010;SDS011;10663;42.714;23.274;2022-12-24T06:39:54;67.37;;;43.17;;
21010;SDS011;10663;42.714;23.274;2022-12-24T06:41:25;62.20;;;41.33;;
21010;SDS011;10663;42.714;23.274;2022-12-24T06:42:56;65.53;;;42.90;;
21010;SDS011;10663;42.714;23.274;2022-12-24T06:44:27;61.47;;;41.13;;
21010;SDS011;10663;42.714;23.274;2022-12-24T06:45:58;62.95;;;40.58;;
21010;SDS011;10663;42.714;23.274;2022-12-24T06:47:28;64.03;;;40.03;;
21010;SDS011;10663;42.714;23.274;2022-12-24T06:48:59;65.53;;;41.43;;
21010;SDS011;10663;42.714;23.274;2022-12-24T06:50:31;64.33;;;39.60;;
21010;SDS011;10663;42.714;23.274;2022-12-24T06:52:03;64.43;;;42.05;;
21010;SDS011;10663;42.714;23.274;2022-12-24T06:53:34;63.93;;;41.40;;
21010;SDS011;10663;42.714;23.274;2022-12-24T06:55:05;71.63;;;49.10;;
21010;SDS011;10663;42.714;23.274;2022-12-24T06:56:36;68.65;;;47.10;;
21010;SDS011;10663;42.714;23.274;2022-12-24T06:58:07;58.45;;;40.65;;
21010;SDS011;10663;42.714;23.274;2022-12-24T06:59:39;55.22;;;38.53;;
21010;SDS011;10663;42.714;23.274;2022-12-24T07:01:10;57.13;;;38.30;;
21010;SDS011;10663;42.714;23.274;2022-12-24T07:02:43;58.35;;;36.53;;
21010;SDS011;10663;42.714;23.274;2022-12-24T07:04:14;57.60;;;39.60;;
21010;SDS011;10663;42.714;23.274;2022-12-24T07:05:45;67.45;;;43.13;;
21010;SDS011;10663;42.714;23.274;2022-12-24T07:07:16;62.33;;;40.95;;
21010;SDS011;10663;42.714;23.274;2022-12-24T07:08:47;82.45;;;50.63;;
21010;SDS011;10663;42.714;23.274;2022-12-24T07:10:18;71.40;;;44.50;;
21010;SDS011;10663;42.714;23.274;2022-12-24T07:11:50;80.10;;;51.22;;
21010;SDS011;10663;42.714;23.274;2022-12-24T07:13:21;76.60;;;50.47;;
21010;SDS011;10663;42.714;23.274;2022-12-24T07:14:52;72.57;;;44.60;;
21010;SDS011;10663;42.714;23.274;2022-12-24T07:16:23;70.88;;;42.85;;
21010;SDS011;10663;42.714;23.274;2022-12-24T07:17:53;68.10;;;44.00;;
21010;SDS011;10663;42.714;23.274;2022-12-24T07:19:24;68.95;;;43.35;;
21010;SDS011;10663;42.714;23.274;2022-12-24T07:20:56;59.75;;;40.08;;
21010;SDS011;10663;42.714;23.274;2022-12-24T07:22:28;64.32;;;41.35;;
21010;SDS011;10663;42.714;23.274;2022-12-24T07:23:58;68.13;;;43.33;;
21010;SDS011;10663;42.714;23.274;2022-12-24T07:25:29;67.22;;;44.75;;
21010;SDS011;10663;42.714;23.274;2022-12-24T07:27:00;76.33;;;49.57;;
21010;SDS011;10663;42.714;23.274;2022-12-24T07:28:31;81.90;;;53.03;;
21010;SDS011;10663;42.714;23.274;2022-12-24T07:30:03;92.75;;;58.63;;
21010;SDS011;10663;42.714;23.274;2022-12-24T07:31:34;142.80;;;90.03;;
21010;SDS011;10663;42.714;23.274;2022-12-24T07:33:05;95.53;;;59.25;;
21010;SDS011;10663;42.714;23.274;2022-12-24T07:34:37;91.20;;;60.85;;
21010;SDS011;10663;42.714;23.274;2022-12-24T07:36:09;98.13;;;60.35;;
21010;SDS011;10663;42.714;23.274;2022-12-24T07:37:47;88.20;;;56.83;;
21010;SDS011;10663;42.714;23.274;2022-12-24T07:39:18;93.63;;;56.72;;
21010;SDS011;10663;42.714;23.274;2022-12-24T07:40:49;90.38;;;56.72;;
21010;SDS011;10663;42.714;23.274;2022-12-24T07:42:19;88.00;;;55.35;;
21010;SDS011;10663;42.714;23.274;2022-12-24T07:43:50;84.93;;;55.35;;
21010;SDS011;10663;42.714;23.274;2022-12-24T07:45:21;92.95;;;58.70;;
21010;SDS011;10663;42.714;23.274;2022-12-24T07:46:53;78.55;;;52.22;;
21010;SDS011;10663;42.714;23.274;2022-12-24T07:48:24;89.13;;;57.10;;
21010;SDS011;10663;42.714;23.274;2022-12-24T07:49:57;95.57;;;61.35;;
21010;SDS011;10663;42.714;23.274;2022-12-24T07:51:28;94.63;;;62.30;;
21010;SDS011;10663;42.714;23.274;2022-12-24T07:52:59;108.90;;;70.07;;
21010;SDS011;10663;42.714;23.274;2022-12-24T07:54:30;105.60;;;67.78;;
21010;SDS011;10663;42.714;23.274;2022-12-24T07:56:01;97.20;;;64.95;;
21010;SDS011;10663;42.714;23.274;2022-12-24T07:57:32;102.45;;;68.97;;
21010;SDS011;10663;42.714;23.274;2022-12-24T07:59:03;91.38;;;61.67;;
21010;SDS011;10663;42.714;23.274;2022-12-24T08:00:33;98.70;;;64.72;;
21010;SDS011;10663;42.714;23.274;2022-12-24T08:02:04;102.63;;;69.30;;
21010;SDS011;10663;42.714;23.274;2022-12-24T08:03:36;107.65;;;71.70;;
21010;SDS011;10663;42.714;23.274;2022-12-24T08:05:07;113.33;;;74.23;;
21010;SDS011;10663;42.714;23.274;2022-12-24T08:06:38;103.85;;;71.00;;
21010;SDS011;10663;42.714;23.274;2022-12-24T08:08:09;118.57;;;75.75;;
21010;SDS011;10663;42.714;23.274;2022-12-24T08:09:40;114.82;;;75.07;;
21010;SDS011;10663;42.714;23.274;2022-12-24T08:11:11;115.15;;;75.55;;
21010;SDS011;10663;42.714;23.274;2022-12-24T08:12:43;121.68;;;75.82;;
21010;SDS011;10663;42.714;23.274;2022-12-24T08:14:14;114.50;;;74.40;;
21010;SDS011;10663;42.714;23.274;2022-12-24T08:15:45;124.00;;;79.00;;
21010;SDS011;10663;42.714;23.274;2022-12-24T08:17:16;119.72;;;77.75;;
21010;SDS011;10663;42.714;23.274;2022-12-24T08:18:47;122.10;;;76.90;;
21010;SDS011;10663;42.714;23.274;2022-12-24T08:20:18;130.48;;;81.45;;
21010;SDS011;10663;42.714;23.274;2022-12-24T08:21:49;125.32;;;79.63;;
21010;SDS011;10663;42.714;23.274;2022-12-24T08:23:20;135.75;;;86.45;;
21010;SDS011;10663;42.714;23.274;2022-12-24T08:24:50;152.27;;;98.73;;
21010;SDS011;10663;42.714;23.274;2022-12-24T08:26:21;164.07;;;108.57;;
21010;SDS011;10663;42.714;23.274;2022-12-24T08:27:52;171.13;;;110.63;;
21010;SDS011;10663;42.714;23.274;2022-12-24T08:29:23;178.32;;;115.35;;
21010;SDS011;10663;42.714;23.274;2022-12-24T08:30:54;176.35;;;112.60;;
21010;SDS011;10663;42.714;23.274;2022-12-24T08:32:25;178.45;;;113.97;;
21010;SDS011;10663;42.714;23.274;2022-12-24T08:33:55;163.95;;;106.63;;
21010;SDS011;10663;42.714;23.274;2022-12-24T08:35:27;155.48;;;101.10;;
21010;SDS011;10663;42.714;23.274;2022-12-24T08:36:57;152.05;;;100.80;;
21010;SDS011;10663;42.714;23.274;2022-12-24T08:38:28;159.73;;;100.93;;
21010;SDS011;10663;42.714;23.274;2022-12-24T08:39:59;152.65;;;101.40;;
21010;SDS011;10663;42.714;23.274;2022-12-24T08:41:30;144.55;;;94.07;;
21010;SDS011;10663;42.714;23.274;2022-12-24T08:43:01;136.23;;;90.35;;
21010;SDS011;10663;42.714;23.274;2022-12-24T08:44:32;134.20;;;87.03;;
21010;SDS011;10663;42.714;23.274;2022-12-24T08:46:04;142.85;;;91.30;;
21010;SDS011;10663;42.714;23.274;2022-12-24T08:47:36;140.68;;;92.68;;
21010;SDS011;10663;42.714;23.274;2022-12-24T08:49:07;141.02;;;91.60;;
21010;SDS011;10663;42.714;23.274;2022-12-24T08:50:39;137.02;;;88.03;;
21010;SDS011;10663;42.714;23.274;2022-12-24T08:52:10;137.80;;;89.47;;
21010;SDS011;10663;42.714;23.274;2022-12-24T08:53:41;131.83;;;88.87;;
21010;SDS011;10663;42.714;23.274;2022-12-24T08:55:12;136.97;;;88.43;;
21010;SDS011;10663;42.714;23.274;2022-12-24T08:56:43;142.27;;;90.07;;
21010;SDS011;10663;42.714;23.274;2022-12-24T08:58:13;155.75;;;100.15;;
21010;SDS011;10663;42.714;23.274;2022-12-24T08:59:44;156.05;;;99.55;;
21010;SDS011;10663;42.714;23.274;2022-12-24T09:01:17;162.07;;;104.25;;
21010;SDS011;10663;42.714;23.274;2022-12-24T09:02:49;159.47;;;104.13;;
21010;SDS011;10663;42.714;23.274;2022-12-24T09:04:20;164.53;;;106.07;;
21010;SDS011;10663;42.714;23.274;2022-12-24T09:05:51;165.80;;;106.17;;
21010;SDS011;10663;42.714;23.274;2022-12-24T09:07:22;152.07;;;97.90;;
